sensor_id;sensor_type;location;lat;lon;timestamp;pressure;altitude;pressure_sealevel;temperature;humidity
5284;BME280;15377;48.540;9.268;2022-12-15T00:02:00;96134.31;;;-1.38;100.00
5284;BME280;15377;48.540;9.268;2022-12-15T00:04:44;96132.34;;;-1.50;100.00
5284;BME280;15377;48.540;9.268;2022-12-15T00:07:28;96131.28;;;-1.40;100.00
5284;BME280;15377;48.540;9.268;2022-12-15T00:10:12;96133.50;;;-1.35;100.00
5284;BME280;15377;48.540;9.268;2022-12-15T00:12:56;96122.56;;;-1.44;100.00
5284;BME280;15377;48.540;9.268;2022-12-15T00:15:40;96130.13;;;-1.55;100.00
5284;BME280;15377;48.540;9.268;2022-12-15T00:18:24;96149.69;;;-1.35;100.00
5284;BME280;15377;48.540;9.268;2022-12-15T00:21:08;96134.16;;;-1.47;100.00
5284;BME280;15377;48.540;9.268;2022-12-15T00:23:52;96118.16;;;-1.54;100.00
5284;BME280;15377;48.540;9.268;2022-12-15T00:26:36;96151.28;;;-1.38;100.00
5284;BME280;15377;48.540;9.268;2022-12-15T00:29:20;96154.38;;;-1.39;100.00
5284;BME280;15377;48.540;9.268;2022-12-15T00:32:04;96155.56;;;-1.40;100.00
5284;BME280;15377;48.540;9.268;2022-12-15T00:34:47;96154.31;;;-1.36;100.00
5284;BME280;15377;48.540;9.268;2022-12-15T00:37:31;96153.66;;;-1.40;100.00
5284;BME280;15377;48.540;9.268;2022-12-15T00:40:15;96125.19;;;-1.57;100.00
5284;BME280;15377;48.540;9.268;2022-12-15T00:42:41;96162.94;;;-1.41;100.00
5284;BME280;15377;48.540;9.268;2022-12-15T00:45:07;96143.28;;;-1.57;100.00
5284;BME280;15377;48.540;9.268;2022-12-15T00:47:32;96169.91;;;-1.43;100.00
5284;BME280;15377;48.540;9.268;2022-12-15T00:49:58;96175.66;;;-1.41;100.00
5284;BME280;15377;48.540;9.268;2022-12-15T00:52:42;96169.59;;;-1.45;100.00
5284;BME280;15377;48.540;9.268;2022-12-15T00:55:26;96161.38;;;-1.42;100.00
5284;BME280;15377;48.540;9.268;2022-12-15T00:58:10;96180.53;;;-1.36;100.00
5284;BME280;15377;48.540;9.268;2022-12-15T01:00:54;96182.47;;;-1.53;100.00
5284;BME280;15377;48.540;9.268;2022-12-15T01:03:38;96184.59;;;-1.44;100.00
5284;BME280;15377;48.540;9.268;2022-12-15T01:06:22;96176.84;;;-1.42;100.00
5284;BME280;15377;48.540;9.268;2022-12-15T01:09:08;96193.50;;;-1.31;100.00
5284;BME280;15377;48.540;9.268;2022-12-15T01:11:52;96197.63;;;-1.43;100.00
5284;BME280;15377;48.540;9.268;2022-12-15T01:14:36;96190.31;;;-1.42;100.00
5284;BME280;15377;48.540;9.268;2022-12-15T01:17:20;96185.94;;;-1.36;100.00
5284;BME280;15377;48.540;9.268;2022-12-15T01:20:06;96194.84;;;-1.39;100.00
5284;BME280;15377;48.540;9.268;2022-12-15T01:22:52;96182.41;;;-1.49;100.00
5284;BME280;15377;48.540;9.268;2022-12-15T01:25:21;96193.50;;;-1.31;100.00
5284;BME280;15377;48.540;9.268;2022-12-15T01:27:47;96174.53;;;-1.44;100.00
5284;BME280;15377;48.540;9.268;2022-12-15T01:30:21;96190.66;;;-1.40;100.00
5284;BME280;15377;48.540;9.268;2022-12-15T01:32:46;96193.34;;;-1.40;100.00
5284;BME280;15377;48.540;9.268;2022-12-15T01:35:12;96195.22;;;-1.37;100.00
5284;BME280;15377;48.540;9.268;2022-12-15T01:37:38;96180.88;;;-1.50;100.00
5284;BME280;15377;48.540;9.268;2022-12-15T01:40:05;96217.78;;;-1.31;100.00
5284;BME280;15377;48.540;9.268;2022-12-15T01:42:50;96203.31;;;-1.37;100.00
5284;BME280;15377;48.540;9.268;2022-12-15T01:48:01;96218.88;;;-1.29;100.00
5284;BME280;15377;48.540;9.268;2022-12-15T01:50:30;96208.94;;;-1.32;100.00
5284;BME280;15377;48.540;9.268;2022-12-15T01:52:56;96202.94;;;-1.39;100.00
5284;BME280;15377;48.540;9.268;2022-12-15T01:55:24;96211.72;;;-1.35;100.00
5284;BME280;15377;48.540;9.268;2022-12-15T01:57:55;96205.41;;;-1.45;100.00
5284;BME280;15377;48.540;9.268;2022-12-15T02:00:23;96189.47;;;-1.55;100.00
5284;BME280;15377;48.540;9.268;2022-12-15T02:02:48;96224.44;;;-1.36;100.00
5284;BME280;15377;48.540;9.268;2022-12-15T02:05:14;96223.03;;;-1.40;100.00
5284;BME280;15377;48.540;9.268;2022-12-15T02:07:39;96219.81;;;-1.35;100.00
5284;BME280;15377;48.540;9.268;2022-12-15T02:10:08;96216.97;;;-1.44;100.00
5284;BME280;15377;48.540;9.268;2022-12-15T02:15:50;96222.19;;;-1.37;100.00
5284;BME280;15377;48.540;9.268;2022-12-15T02:18:50;96217.72;;;-1.44;100.00
5284;BME280;15377;48.540;9.268;2022-12-15T02:21:28;96200.09;;;-1.48;100.00
5284;BME280;15377;48.540;9.268;2022-12-15T02:31:57;96231.97;;;-1.43;100.00
5284;BME280;15377;48.540;9.268;2022-12-15T02:37:08;96213.56;;;-1.64;100.00
5284;BME280;15377;48.540;9.268;2022-12-15T02:39:35;96232.13;;;-1.50;100.00
5284;BME280;15377;48.540;9.268;2022-12-15T02:42:01;96234.75;;;-1.47;100.00
5284;BME280;15377;48.540;9.268;2022-12-15T02:44:32;96234.66;;;-1.43;100.00
5284;BME280;15377;48.540;9.268;2022-12-15T02:47:12;96239.28;;;-1.44;100.00
5284;BME280;15377;48.540;9.268;2022-12-15T02:52:32;96239.13;;;-1.37;100.00
5284;BME280;15377;48.540;9.268;2022-12-15T02:58:05;96235.31;;;-1.39;100.00
5284;BME280;15377;48.540;9.268;2022-12-15T03:00:23;96243.78;;;-1.37;100.00
5284;BME280;15377;48.540;9.268;2022-12-15T03:02:51;96229.44;;;-1.50;100.00
5284;BME280;15377;48.540;9.268;2022-12-15T03:05:18;96253.88;;;-1.41;100.00
5284;BME280;15377;48.540;9.268;2022-12-15T03:07:48;96237.19;;;-1.52;100.00
5284;BME280;15377;48.540;9.268;2022-12-15T03:10:14;96250.06;;;-1.44;100.00
5284;BME280;15377;48.540;9.268;2022-12-15T03:12:39;96250.84;;;-1.43;100.00
5284;BME280;15377;48.540;9.268;2022-12-15T03:15:05;96250.53;;;-1.45;100.00
5284;BME280;15377;48.540;9.268;2022-12-15T03:17:31;96240.63;;;-1.52;100.00
5284;BME280;15377;48.540;9.268;2022-12-15T03:19:56;96253.09;;;-1.42;100.00
5284;BME280;15377;48.540;9.268;2022-12-15T03:22:21;96249.84;;;-1.49;100.00
5284;BME280;15377;48.540;9.268;2022-12-15T03:24:47;96250.84;;;-1.43;100.00
5284;BME280;15377;48.540;9.268;2022-12-15T03:27:13;96266.59;;;-1.42;100.00
5284;BME280;15377;48.540;9.268;2022-12-15T03:29:38;96266.34;;;-1.47;100.00
5284;BME280;15377;48.540;9.268;2022-12-15T03:32:04;96268.72;;;-1.49;100.00
5284;BME280;15377;48.540;9.268;2022-12-15T03:34:29;96267.19;;;-1.50;100.00
5284;BME280;15377;48.540;9.268;2022-12-15T03:36:55;96271.50;;;-1.53;100.00
5284;BME280;15377;48.540;9.268;2022-12-15T03:39:20;96274.09;;;-1.49;100.00
5284;BME280;15377;48.540;9.268;2022-12-15T03:41:45;96264.16;;;-1.52;100.00
5284;BME280;15377;48.540;9.268;2022-12-15T03:44:11;96282.88;;;-1.45;100.00
5284;BME280;15377;48.540;9.268;2022-12-15T03:46:36;96280.34;;;-1.52;100.00
5284;BME280;15377;48.540;9.268;2022-12-15T03:49:02;96285.75;;;-1.52;100.00
5284;BME280;15377;48.540;9.268;2022-12-15T03:51:27;96291.13;;;-1.52;100.00
5284;BME280;15377;48.540;9.268;2022-12-15T03:53:52;96288.09;;;-1.54;100.00
5284;BME280;15377;48.540;9.268;2022-12-15T03:56:18;96283.53;;;-1.57;100.00
5284;BME280;15377;48.540;9.268;2022-12-15T03:58:44;96285.38;;;-1.54;100.00
5284;BME280;15377;48.540;9.268;2022-12-15T04:01:25;96298.38;;;-1.49;100.00
5284;BME280;15377;48.540;9.268;2022-12-15T04:03:53;96311.34;;;-1.60;100.00
5284;BME280;15377;48.540;9.268;2022-12-15T04:06:18;96302.75;;;-1.55;100.00
5284;BME280;15377;48.540;9.268;2022-12-15T04:08:43;96289.63;;;-1.53;100.00
5284;BME280;15377;48.540;9.268;2022-12-15T04:11:09;96292.66;;;-1.51;100.00
5284;BME280;15377;48.540;9.268;2022-12-15T04:13:34;96303.44;;;-1.51;100.00
5284;BME280;15377;48.540;9.268;2022-12-15T04:16:03;96306.56;;;-1.53;100.00
5284;BME280;15377;48.540;9.268;2022-12-15T04:18:29;96300.41;;;-1.53;100.00
5284;BME280;15377;48.540;9.268;2022-12-15T04:20:55;96287.72;;;-1.72;100.00
5284;BME280;15377;48.540;9.268;2022-12-15T04:23:21;96312.03;;;-1.56;100.00
5284;BME280;15377;48.540;9.268;2022-12-15T04:25:46;96291.28;;;-1.59;100.00
5284;BME280;15377;48.540;9.268;2022-12-15T04:28:30;96311.88;;;-1.49;100.00
5284;BME280;15377;48.540;9.268;2022-12-15T04:31:17;96311.78;;;-1.46;100.00
5284;BME280;15377;48.540;9.268;2022-12-15T04:34:08;96291.47;;;-1.50;100.00
5284;BME280;15377;48.540;9.268;2022-12-15T04:36:57;96298.88;;;-1.54;100.00
5284;BME280;15377;48.540;9.268;2022-12-15T04:39:43;96299.72;;;-1.57;100.00
5284;BME280;15377;48.540;9.268;2022-12-15T04:42:29;96284.94;;;-1.69;100.00
5284;BME280;15377;48.540;9.268;2022-12-15T04:45:16;96303.13;;;-1.53;100.00
5284;BME280;15377;48.540;9.268;2022-12-15T04:48:01;96299.91;;;-1.48;100.00
5284;BME280;15377;48.540;9.268;2022-12-15T04:50:45;96301.09;;;-1.49;100.00
5284;BME280;15377;48.540;9.268;2022-12-15T04:53:29;96308.00;;;-1.48;100.00
5284;BME280;15377;48.540;9.268;2022-12-15T04:56:14;96308.75;;;-1.48;100.00
5284;BME280;15377;48.540;9.268;2022-12-15T04:58:59;96310.53;;;-1.41;100.00
5284;BME280;15377;48.540;9.268;2022-12-15T05:01:43;96308.75;;;-1.48;100.00
5284;BME280;15377;48.540;9.268;2022-12-15T05:04:27;96296.53;;;-1.52;100.00
5284;BME280;15377;48.540;9.268;2022-12-15T05:07:11;96309.66;;;-1.54;100.00
5284;BME280;15377;48.540;9.268;2022-12-15T05:09:55;96303.59;;;-1.58;100.00
5284;BME280;15377;48.540;9.268;2022-12-15T05:12:39;96294.81;;;-1.62;100.00
5284;BME280;15377;48.540;9.268;2022-12-15T05:15:23;96304.25;;;-1.54;100.00
5284;BME280;15377;48.540;9.268;2022-12-15T05:18:07;96329.41;;;-1.41;100.00
5284;BME280;15377;48.540;9.268;2022-12-15T05:20:51;96327.41;;;-1.37;100.00
5284;BME280;15377;48.540;9.268;2022-12-15T05:23:35;96306.47;;;-1.49;100.00
5284;BME280;15377;48.540;9.268;2022-12-15T05:26:19;96321.25;;;-1.38;100.00
5284;BME280;15377;48.540;9.268;2022-12-15T05:29:03;96327.75;;;-1.35;100.00
5284;BME280;15377;48.540;9.268;2022-12-15T05:31:47;96331.63;;;-1.36;100.00
5284;BME280;15377;48.540;9.268;2022-12-15T05:34:30;96346.97;;;-1.33;100.00
5284;BME280;15377;48.540;9.268;2022-12-15T05:36:57;96341.72;;;-1.40;100.00
5284;BME280;15377;48.540;9.268;2022-12-15T05:39:23;96347.13;;;-1.40;100.00
5284;BME280;15377;48.540;9.268;2022-12-15T05:41:50;96331.34;;;-1.42;100.00
5284;BME280;15377;48.540;9.268;2022-12-15T05:44:16;96334.03;;;-1.42;100.00
5284;BME280;15377;48.540;9.268;2022-12-15T05:46:42;96304.34;;;-1.58;100.00
5284;BME280;15377;48.540;9.268;2022-12-15T05:49:10;96313.22;;;-1.41;100.00
5284;BME280;15377;48.540;9.268;2022-12-15T05:51:39;96318.63;;;-1.41;100.00
5284;BME280;15377;48.540;9.268;2022-12-15T05:54:06;96296.19;;;-1.54;100.00
5284;BME280;15377;48.540;9.268;2022-12-15T05:56:31;96329.41;;;-1.41;100.00
5284;BME280;15377;48.540;9.268;2022-12-15T05:58:57;96337.03;;;-1.36;100.00
5284;BME280;15377;48.540;9.268;2022-12-15T06:01:24;96339.72;;;-1.36;100.00
5284;BME280;15377;48.540;9.268;2022-12-15T06:03:50;96331.63;;;-1.36;100.00
5284;BME280;15377;48.540;9.268;2022-12-15T06:06:15;96343.94;;;-1.35;100.00
5284;BME280;15377;48.540;9.268;2022-12-15T06:08:42;96350.22;;;-1.42;100.00
5284;BME280;15377;48.540;9.268;2022-12-15T06:11:10;96354.03;;;-1.39;100.00
5284;BME280;15377;48.540;9.268;2022-12-15T06:13:36;96363.72;;;-1.42;100.00
5284;BME280;15377;48.540;9.268;2022-12-15T06:16:02;96362.56;;;-1.41;100.00
5284;BME280;15377;48.540;9.268;2022-12-15T06:18:30;96355.22;;;-1.40;100.00
5284;BME280;15377;48.540;9.268;2022-12-15T06:21:02;96359.78;;;-1.37;100.00
5284;BME280;15377;48.540;9.268;2022-12-15T06:23:28;96359.44;;;-1.39;100.00
5284;BME280;15377;48.540;9.268;2022-12-15T06:25:54;96358.00;;;-1.44;100.00
5284;BME280;15377;48.540;9.268;2022-12-15T06:28:20;96345.59;;;-1.41;100.00
5284;BME280;15377;48.540;9.268;2022-12-15T06:30:52;96353.44;;;-1.47;100.00
5284;BME280;15377;48.540;9.268;2022-12-15T06:33:19;96334.78;;;-1.57;100.00
5284;BME280;15377;48.540;9.268;2022-12-15T06:35:44;96329.06;;;-1.59;100.00
5284;BME280;15377;48.540;9.268;2022-12-15T06:38:10;96330.50;;;-1.55;100.00
5284;BME280;15377;48.540;9.268;2022-12-15T06:40:36;96324.31;;;-1.55;100.00
5284;BME280;15377;48.540;9.268;2022-12-15T06:43:01;96309.91;;;-1.65;100.00
5284;BME280;15377;48.540;9.268;2022-12-15T06:45:27;96345.09;;;-1.52;100.00
5284;BME280;15377;48.540;9.268;2022-12-15T06:47:52;96335.03;;;-1.52;100.00
5284;BME280;15377;48.540;9.268;2022-12-15T06:50:17;96341.69;;;-1.56;100.00
5284;BME280;15377;48.540;9.268;2022-12-15T06:52:44;96327.47;;;-1.57;100.00
5284;BME280;15377;48.540;9.268;2022-12-15T06:55:15;96330.41;;;-1.51;100.00
5284;BME280;15377;48.540;9.268;2022-12-15T06:57:42;96342.97;;;-1.45;100.00
5284;BME280;15377;48.540;9.268;2022-12-15T07:00:08;96341.88;;;-1.47;100.00
5284;BME280;15377;48.540;9.268;2022-12-15T07:02:33;96342.25;;;-1.45;100.00
5284;BME280;15377;48.540;9.268;2022-12-15T07:04:59;96338.78;;;-1.46;100.00
5284;BME280;15377;48.540;9.268;2022-12-15T07:07:25;96311.34;;;-1.60;100.00
5284;BME280;15377;48.540;9.268;2022-12-15T07:09:50;96327.47;;;-1.57;100.00
5284;BME280;15377;48.540;9.268;2022-12-15T07:12:16;96336.00;;;-1.42;100.00
5284;BME280;15377;48.540;9.268;2022-12-15T07:14:42;96341.88;;;-1.47;100.00
5284;BME280;15377;48.540;9.268;2022-12-15T07:17:10;96366.69;;;-1.36;100.00
5284;BME280;15377;48.540;9.268;2022-12-15T07:19:36;96329.56;;;-1.48;100.00
5284;BME280;15377;48.540;9.268;2022-12-15T07:22:02;96345.44;;;-1.34;100.00
5284;BME280;15377;48.540;9.268;2022-12-15T07:24:27;96359.28;;;-1.32;100.00
5284;BME280;15377;48.540;9.268;2022-12-15T07:26:52;96350.34;;;-1.29;100.00
5284;BME280;15377;48.540;9.268;2022-12-15T07:29:18;96351.72;;;-1.21;100.00
5284;BME280;15377;48.540;9.268;2022-12-15T07:31:44;96362.16;;;-1.23;100.00
5284;BME280;15377;48.540;9.268;2022-12-15T07:34:10;96366.47;;;-1.26;100.00
5284;BME280;15377;48.540;9.268;2022-12-15T07:36:36;96357.44;;;-1.19;100.00
5284;BME280;15377;48.540;9.268;2022-12-15T07:39:02;96367.47;;;-1.20;100.00
5284;BME280;15377;48.540;9.268;2022-12-15T07:41:28;96364.44;;;-1.22;100.00
5284;BME280;15377;48.540;9.268;2022-12-15T07:43:54;96361.59;;;-1.15;100.00
5284;BME280;15377;48.540;9.268;2022-12-15T07:46:19;96370.41;;;-1.14;100.00
5284;BME280;15377;48.540;9.268;2022-12-15T07:48:45;96377.28;;;-1.10;100.00
5284;BME280;15377;48.540;9.268;2022-12-15T07:51:11;96387.47;;;-1.01;100.00
5284;BME280;15377;48.540;9.268;2022-12-15T07:53:36;96379.38;;;-1.01;100.00
5284;BME280;15377;48.540;9.268;2022-12-15T07:56:04;96388.66;;;-1.02;100.00
5284;BME280;15377;48.540;9.268;2022-12-15T07:58:30;96388.84;;;-0.93;100.00
5284;BME280;15377;48.540;9.268;2022-12-15T08:01:06;96380.75;;;-0.93;100.00
5284;BME280;15377;48.540;9.268;2022-12-15T08:03:32;96391.38;;;-0.86;100.00
5284;BME280;15377;48.540;9.268;2022-12-15T08:06:02;96398.53;;;-0.80;100.00
5284;BME280;15377;48.540;9.268;2022-12-15T08:08:28;96414.19;;;-0.71;100.00
5284;BME280;15377;48.540;9.268;2022-12-15T08:10:53;96398.06;;;-0.75;100.00
5284;BME280;15377;48.540;9.268;2022-12-15T08:13:19;96414.09;;;-0.68;100.00
5284;BME280;15377;48.540;9.268;2022-12-15T08:15:44;96417.81;;;-0.62;100.00
5284;BME280;15377;48.540;9.268;2022-12-15T08:18:10;96401.69;;;-0.65;100.00
5284;BME280;15377;48.540;9.268;2022-12-15T08:20:38;96401.69;;;-0.65;100.00
5284;BME280;15377;48.540;9.268;2022-12-15T08:23:04;96412.31;;;-0.58;100.00
5284;BME280;15377;48.540;9.268;2022-12-15T08:25:29;96416.72;;;-0.48;100.00
5284;BME280;15377;48.540;9.268;2022-12-15T08:27:55;96428.63;;;-0.46;100.00
5284;BME280;15377;48.540;9.268;2022-12-15T08:30:21;96412.31;;;-0.42;100.00
5284;BME280;15377;48.540;9.268;2022-12-15T08:32:47;96411.78;;;-0.37;100.00
5284;BME280;15377;48.540;9.268;2022-12-15T08:35:13;96409.78;;;-0.33;100.00
5284;BME280;15377;48.540;9.268;2022-12-15T08:37:38;96413.31;;;-0.36;100.00
5284;BME280;15377;48.540;9.268;2022-12-15T08:40:05;96414.31;;;-0.30;100.00
5284;BME280;15377;48.540;9.268;2022-12-15T08:42:34;96425.47;;;-0.28;100.00
5284;BME280;15377;48.540;9.268;2022-12-15T08:45:01;96436.94;;;-0.24;100.00
5284;BME280;15377;48.540;9.268;2022-12-15T08:47:26;96427.84;;;-0.30;100.00
5284;BME280;15377;48.540;9.268;2022-12-15T08:49:51;96430.94;;;-0.16;100.00
5284;BME280;15377;48.540;9.268;2022-12-15T08:52:19;96433.38;;;-0.06;100.00
5284;BME280;15377;48.540;9.268;2022-12-15T08:54:44;96434.88;;;-0.05;100.00
5284;BME280;15377;48.540;9.268;2022-12-15T08:57:10;96435.56;;;-0.01;100.00
5284;BME280;15377;48.540;9.268;2022-12-15T08:59:35;96433.03;;;-0.08;100.00
5284;BME280;15377;48.540;9.268;2022-12-15T09:02:01;96433.09;;;0.05;100.00
5284;BME280;15377;48.540;9.268;2022-12-15T09:04:26;96420.06;;;0.16;100.00
5284;BME280;15377;48.540;9.268;2022-12-15T09:06:51;96397.66;;;0.15;100.00
5284;BME280;15377;48.540;9.268;2022-12-15T09:09:17;96404.53;;;0.32;100.00
5284;BME280;15377;48.540;9.268;2022-12-15T09:11:42;96424.50;;;0.63;100.00
5284;BME280;15377;48.540;9.268;2022-12-15T09:14:08;96416.63;;;0.94;100.00
5284;BME280;15377;48.540;9.268;2022-12-15T09:16:33;96405.50;;;1.04;100.00
5284;BME280;15377;48.540;9.268;2022-12-15T09:18:59;96410.47;;;1.18;100.00
5284;BME280;15377;48.540;9.268;2022-12-15T09:21:27;96418.72;;;1.27;100.00
5284;BME280;15377;48.540;9.268;2022-12-15T09:23:55;96435.63;;;1.19;100.00
5284;BME280;15377;48.540;9.268;2022-12-15T09:26:24;96434.09;;;1.05;100.00
5284;BME280;15377;48.540;9.268;2022-12-15T09:28:50;96444.41;;;1.23;100.00
5284;BME280;15377;48.540;9.268;2022-12-15T09:31:22;96403.72;;;0.60;100.00
5284;BME280;15377;48.540;9.268;2022-12-15T09:33:49;96451.63;;;0.88;100.00
5284;BME280;15377;48.540;9.268;2022-12-15T09:36:15;96453.34;;;0.82;100.00
5284;BME280;15377;48.540;9.268;2022-12-15T09:38:41;96457.91;;;0.73;100.00
5284;BME280;15377;48.540;9.268;2022-12-15T09:43:33;96446.16;;;0.63;100.00
5284;BME280;15377;48.540;9.268;2022-12-15T09:46:04;96454.41;;;0.72;100.00
5284;BME280;15377;48.540;9.268;2022-12-15T09:48:37;96450.72;;;0.66;100.00
5284;BME280;15377;48.540;9.268;2022-12-15T09:51:07;96416.97;;;0.42;100.00
5284;BME280;15377;48.540;9.268;2022-12-15T09:53:34;96434.13;;;0.52;100.00
5284;BME280;15377;48.540;9.268;2022-12-15T09:56:09;96425.59;;;0.53;100.00
5284;BME280;15377;48.540;9.268;2022-12-15T09:58:43;96423.88;;;0.59;100.00
5284;BME280;15377;48.540;9.268;2022-12-15T10:01:40;96413.78;;;0.60;100.00
5284;BME280;15377;48.540;9.268;2022-12-15T10:09:30;96425.78;;;0.46;100.00
5284;BME280;15377;48.540;9.268;2022-12-15T10:14:45;96419.09;;;0.63;100.00
5284;BME280;15377;48.540;9.268;2022-12-15T10:20:15;96410.84;;;0.54;100.00
5284;BME280;15377;48.540;9.268;2022-12-15T10:22:41;96423.19;;;0.55;100.00
5284;BME280;15377;48.540;9.268;2022-12-15T10:30:18;96421.16;;;0.59;100.00
5284;BME280;15377;48.540;9.268;2022-12-15T10:33:10;96412.69;;;0.57;100.00
5284;BME280;15377;48.540;9.268;2022-12-15T10:35:38;96417.25;;;0.60;100.00
5284;BME280;15377;48.540;9.268;2022-12-15T10:38:20;96400.34;;;0.56;100.00
5284;BME280;15377;48.540;9.268;2022-12-15T10:40:53;96410.34;;;0.59;100.00
5284;BME280;15377;48.540;9.268;2022-12-15T10:43:24;96414.34;;;0.67;100.00
5284;BME280;15377;48.540;9.268;2022-12-15T10:46:13;96400.03;;;0.54;100.00
5284;BME280;15377;48.540;9.268;2022-12-15T10:48:40;96401.56;;;0.68;100.00
5284;BME280;15377;48.540;9.268;2022-12-15T10:51:36;96387.94;;;0.71;100.00
5284;BME280;15377;48.540;9.268;2022-12-15T10:56:46;96396.28;;;0.89;100.00
5284;BME280;15377;48.540;9.268;2022-12-15T11:01:47;96399.22;;;0.95;100.00
5284;BME280;15377;48.540;9.268;2022-12-15T11:04:29;96395.75;;;0.94;100.00
5284;BME280;15377;48.540;9.268;2022-12-15T11:06:59;96388.41;;;0.95;100.00
5284;BME280;15377;48.540;9.268;2022-12-15T11:09:33;96401.84;;;0.98;100.00
5284;BME280;15377;48.540;9.268;2022-12-15T11:12:00;96405.38;;;1.08;100.00
5284;BME280;15377;48.540;9.268;2022-12-15T11:14:49;96402.16;;;1.13;100.00
5284;BME280;15377;48.540;9.268;2022-12-15T11:17:18;96399.97;;;1.20;100.00
5284;BME280;15377;48.540;9.268;2022-12-15T11:19:59;96405.59;;;1.26;100.00
5284;BME280;15377;48.540;9.268;2022-12-15T11:22:36;96402.00;;;1.41;100.00
5284;BME280;15377;48.540;9.268;2022-12-15T11:25:23;96390.06;;;1.51;100.00
5284;BME280;15377;48.540;9.268;2022-12-15T11:27:55;96392.53;;;1.58;100.00
5284;BME280;15377;48.540;9.268;2022-12-15T11:30:23;96389.28;;;1.63;100.00
5284;BME280;15377;48.540;9.268;2022-12-15T11:32:52;96381.34;;;1.69;100.00
5284;BME280;15377;48.540;9.268;2022-12-15T11:35:24;96366.44;;;1.86;100.00
5284;BME280;15377;48.540;9.268;2022-12-15T11:38:07;96367.44;;;1.79;100.00
5284;BME280;15377;48.540;9.268;2022-12-15T11:40:41;96360.00;;;1.92;100.00
5284;BME280;15377;48.540;9.268;2022-12-15T11:48:39;96320.28;;;1.98;100.00
5284;BME280;15377;48.540;9.268;2022-12-15T11:56:33;96303.50;;;1.91;100.00
5284;BME280;15377;48.540;9.268;2022-12-15T12:02:15;96297.56;;;1.83;100.00
5284;BME280;15377;48.540;9.268;2022-12-15T12:07:44;96297.66;;;1.58;100.00
5284;BME280;15377;48.540;9.268;2022-12-15T12:10:30;96297.97;;;1.60;100.00
5284;BME280;15377;48.540;9.268;2022-12-15T12:18:53;96278.00;;;1.88;100.00
5284;BME280;15377;48.540;9.268;2022-12-15T12:21:25;96267.53;;;1.99;100.00
5284;BME280;15377;48.540;9.268;2022-12-15T12:24:00;96261.97;;;2.03;100.00
5284;BME280;15377;48.540;9.268;2022-12-15T12:31:54;96272.03;;;1.93;100.00
5284;BME280;15377;48.540;9.268;2022-12-15T12:34:31;96265.59;;;1.78;100.00
5284;BME280;15377;48.540;9.268;2022-12-15T12:37:18;96257.88;;;1.77;100.00
5284;BME280;15377;48.540;9.268;2022-12-15T12:39:44;96282.13;;;1.71;100.00
5284;BME280;15377;48.540;9.268;2022-12-15T12:42:19;96271.56;;;1.52;100.00
5284;BME280;15377;48.540;9.268;2022-12-15T12:44:48;96286.75;;;1.71;100.00
5284;BME280;15377;48.540;9.268;2022-12-15T12:47:24;96276.22;;;1.51;100.00
5284;BME280;15377;48.540;9.268;2022-12-15T12:50:20;96281.25;;;1.40;100.00
5284;BME280;15377;48.540;9.268;2022-12-15T12:52:50;96285.19;;;1.27;100.00
5284;BME280;15377;48.540;9.268;2022-12-15T12:57:42;96287.47;;;1.16;100.00
5284;BME280;15377;48.540;9.268;2022-12-15T13:10:38;96249.50;;;0.94;100.00
5284;BME280;15377;48.540;9.268;2022-12-15T13:13:15;96236.19;;;0.87;100.00
5284;BME280;15377;48.540;9.268;2022-12-15T13:15:43;96231.09;;;0.89;100.00
5284;BME280;15377;48.540;9.268;2022-12-15T13:20:45;96221.09;;;0.99;100.00
5284;BME280;15377;48.540;9.268;2022-12-15T13:26:00;96204.91;;;0.86;100.00
5284;BME280;15377;48.540;9.268;2022-12-15T13:33:50;96194.81;;;0.99;100.00
5284;BME280;15377;48.540;9.268;2022-12-15T13:49:48;96189.47;;;1.08;100.00
5284;BME280;15377;48.540;9.268;2022-12-15T13:54:53;96173.81;;;1.12;100.00
5284;BME280;15377;48.540;9.268;2022-12-15T13:57:22;96179.53;;;1.27;100.00
5284;BME280;15377;48.540;9.268;2022-12-15T14:07:37;96162.00;;;1.19;100.00
5284;BME280;15377;48.540;9.268;2022-12-15T14:10:04;96146.66;;;1.03;100.00
5284;BME280;15377;48.540;9.268;2022-12-15T14:12:31;96151.28;;;1.15;100.00
5284;BME280;15377;48.540;9.268;2022-12-15T14:14:57;96144.28;;;1.05;100.00
5284;BME280;15377;48.540;9.268;2022-12-15T14:17:22;96171.44;;;1.14;100.00
5284;BME280;15377;48.540;9.268;2022-12-15T14:19:49;96167.47;;;1.06;100.00
5284;BME280;15377;48.540;9.268;2022-12-15T14:22:26;96157.94;;;1.02;100.00
5284;BME280;15377;48.540;9.268;2022-12-15T14:25:01;96158.09;;;0.98;100.00
5284;BME280;15377;48.540;9.268;2022-12-15T14:27:30;96151.72;;;0.92;100.00
5284;BME280;15377;48.540;9.268;2022-12-15T14:30:17;96158.94;;;0.95;100.00
5284;BME280;15377;48.540;9.268;2022-12-15T14:32:46;96138.25;;;0.67;100.00
5284;BME280;15377;48.540;9.268;2022-12-15T14:35:21;96165.59;;;0.82;100.00
5284;BME280;15377;48.540;9.268;2022-12-15T14:37:47;96160.28;;;0.78;100.00
5284;BME280;15377;48.540;9.268;2022-12-15T14:40:16;96144.44;;;0.55;100.00
5284;BME280;15377;48.540;9.268;2022-12-15T14:42:42;96141.72;;;0.55;100.00
5284;BME280;15377;48.540;9.268;2022-12-15T14:45:24;96161.66;;;0.61;100.00
5284;BME280;15377;48.540;9.268;2022-12-15T14:48:07;96150.63;;;0.56;100.00
5284;BME280;15377;48.540;9.268;2022-12-15T14:50:34;96152.56;;;0.55;100.00
5284;BME280;15377;48.540;9.268;2022-12-15T14:53:13;96148.66;;;0.56;100.00
5284;BME280;15377;48.540;9.268;2022-12-15T14:55:39;96149.66;;;0.50;100.00
5284;BME280;15377;48.540;9.268;2022-12-15T14:58:40;96159.28;;;0.51;100.00
5284;BME280;15377;48.540;9.268;2022-12-15T15:01:51;96162.97;;;0.44;100.00
5284;BME280;15377;48.540;9.268;2022-12-15T15:04:31;96156.69;;;0.47;100.00
5284;BME280;15377;48.540;9.268;2022-12-15T15:06:59;96157.56;;;0.44;100.00
5284;BME280;15377;48.540;9.268;2022-12-15T15:09:29;96161.47;;;0.43;100.00
5284;BME280;15377;48.540;9.268;2022-12-15T15:11:59;96151.72;;;0.33;100.00
5284;BME280;15377;48.540;9.268;2022-12-15T15:14:32;96158.41;;;0.41;100.00
5284;BME280;15377;48.540;9.268;2022-12-15T15:19:36;96164.19;;;0.43;100.00
5284;BME280;15377;48.540;9.268;2022-12-15T15:22:03;96153.44;;;0.27;100.00
5284;BME280;15377;48.540;9.268;2022-12-15T15:24:33;96152.06;;;0.23;100.00
5284;BME280;15377;48.540;9.268;2022-12-15T15:27:38;96171.22;;;0.28;100.00
5284;BME280;15377;48.540;9.268;2022-12-15T15:30:22;96169.94;;;0.20;100.00
5284;BME280;15377;48.540;9.268;2022-12-15T15:32:56;96170.78;;;0.17;100.00
5284;BME280;15377;48.540;9.268;2022-12-15T15:35:24;96170.78;;;0.17;100.00